עמוד ראשי
METAR-TAF:

METAR-TAF

שדות תעופה :

Esmeraldas, אקוודור

קו רוחב: 00-58-43N, קו אורך: 079-37-36W, גובה: 10מטר

תצפית מזג אוויר נוכחית

הדו"ח נערך לפני 7 שעות ו 33דקות, בשעה 22:00 UTC
רוח 7קשר מכיוון מערב
טמפרטורת 28 צלסיוס
לחות 89%
לחץ 1007 hPa
ראות 10 קילומטר או יותר
עננים בינוניים בגובה 2300רגל
מעונן בגובה 8000רגל
טפטוף קל

METAR: SETN 192200Z 26007KT 9999 -DZ BKN023 OVC080 28/26 Q1007 RMK A2975

זמן: 00:33 (05:33 UTC)


TAF: חסר

תצפיות ותחזיות מזג אוויר לגבי יותר מ- 4,000 שדות תעופה ברחבי העולם. דוחות METAR ו- TAF.

התחנות הזמינות מסומנות בנקודות צהובות ואדומות על גבי המפה.

העבר את העכבר לנקודה הצבעונית על מנת לראות את שם התחנה.

לאחר מכן, לחץ כדי לראות את תוכן ואת תחזיות מזג האוויר.

כדי לשנות את המפה: לחץ על הכפתורים הירוקים עם הפלוס השחור כדי להתקרב; על הכפתור הירוק עם המקף כדי להתרחק; או בחיצים הירוקים למפות סמוכות.


METAR-TAF: